澳門, 澳門

2015年5月29日 15時54分 (GMT +0800)
Hellene Garden | | Change Station
CLOSE
Current Station
個人氣象站
Location: Macau,
海拔: 52 ft
附近的氣象站

海拔 52 ft 22.12 °N, 113.57 °E | Updated 12 minutes ago

Partly Cloudy
局部有雲
95.0 °F
感覺像 136 °F
5.8
風 變化 風 來自 東北

今日
高 -- | 低 -- °F
--% 降水機率
昨天
高 -- | 低 -- °F
Precip. -- 英寸
5:42 AM 7:04 PM
盈凸月, 82% visible
氣壓 29.68 英寸
能見度 6.2 英里
多雲 少數 1200 ft
高溫指數 136 °F
露點 89 °F
濕度 82%
降雨量 0.00 英寸
積雪深度 不適用。
紫外線 9 / 12
花粉 不適用。
空氣質素 不適用。
Flu Activity 不適用。
METAR VMMC 290730Z 20011KT 9999 FEW012 31/27 Q1005 NOSIG

More Conditions Fewer Conditions

氣壓 29.68 英寸
能見度 6.2 英里
多雲 少數 1200 ft
高溫指數 136 °F
露點 89 °F
濕度 82%
降雨量 0.00 英寸
積雪深度 不適用。
紫外線 9 / 12
花粉 不適用。
空氣質素 不適用。
Flu Activity 不適用。
METAR VMMC 290730Z 20011KT 9999 FEW012 31/27 Q1005 NOSIG

More Conditions Fewer Conditions

10-Day Weather Forecast

Almanac

天文

May. 29, 2015 昇起 降落
實際時間
民用曙暮光
航海曙暮光
天文學微明
月亮
可見光的長度
白晝時間
Tomorrow will be .
, % of the Moon is Illuminated

今天之最

國家高溫 國家低溫

Community

WunderPhotos

Upload Photos

1,825,221 照片已上傳!

WunderBlogs® & News

Nearby

空氣質素

  空氣質素 空氣質素指數 污染物
Not available.

積雪量

Station 深度 海拔

地震活動

城市 距離 時間和日期
顯示的最小幅度是2.5。

沿海水溫

地點 溫度

Stations

附近的氣象站

氣象站位置 溫度 風寒指數 露點 濕度 Precip. 海拔 最近更新時間 類型